Time;durP1;ratioP1;P1;durP2;ratioP2;P2;SDS_P1;SDS_P2;PMS_P1;PMS_P2;Temp;Humidity;BMP_temperature;BMP_pressure;BME280_temperature;BME280_humidity;BME280_pressure;Samples;Min_cycle;Max_cycle;Signal;HPM_P1;HPM_P2
2021/03/06 00:00:00;;;;;;;5.57;2.77;;;0.40;99.90;;;;;;5053777;28;20025;-87
2021/03/06 00:02:27;;;;;;;7.03;2.60;;;0.40;99.90;;;;;;5051508;28;20021;-87
2021/03/06 00:04:52;;;;;;;5.53;2.30;;;0.40;99.90;;;;;;5053250;28;20523;-87
2021/03/06 00:07:18;;;;;;;6.80;2.83;;;0.40;99.90;;;;;;5056977;28;20029;-87
2021/03/06 00:09:43;;;;;;;6.03;2.60;;;0.30;99.90;;;;;;5041409;28;20024;-86
2021/03/06 00:12:09;;;;;;;4.80;2.50;;;0.40;99.90;;;;;;5050216;28;20041;-87
2021/03/06 00:14:35;;;;;;;5.67;2.50;;;0.40;99.90;;;;;;5049973;28;20021;-87
2021/03/06 00:17:01;;;;;;;4.90;2.33;;;0.40;99.90;;;;;;5041824;28;20045;-88
2021/03/06 00:19:27;;;;;;;6.07;2.63;;;0.30;99.90;;;;;;5044551;28;20025;-87
2021/03/06 00:21:53;;;;;;;4.80;2.50;;;0.30;99.90;;;;;;5046671;28;20025;-87
2021/03/06 00:24:19;;;;;;;5.87;2.43;;;0.30;99.90;;;;;;5043489;28;20033;-86
2021/03/06 00:26:45;;;;;;;8.03;2.77;;;0.30;99.90;;;;;;5049918;28;20020;-87
2021/03/06 00:29:10;;;;;;;6.83;2.80;;;0.30;99.90;;;;;;5042534;28;20079;-88
2021/03/06 00:31:36;;;;;;;5.97;2.70;;;0.30;99.90;;;;;;5047356;28;20028;-87
2021/03/06 00:34:03;;;;;;;6.60;3.13;;;0.40;99.90;;;;;;5051806;28;20043;-87
2021/03/06 00:36:29;;;;;;;6.33;2.60;;;0.30;99.90;;;;;;5048504;28;20433;-87
2021/03/06 00:38:54;;;;;;;5.70;2.70;;;0.30;99.90;;;;;;5052540;28;20021;-86
2021/03/06 00:41:20;;;;;;;5.73;2.73;;;0.30;99.90;;;;;;5051469;28;20025;-87
2021/03/06 00:43:46;;;;;;;5.97;3.10;;;0.30;99.90;;;;;;5053489;28;20052;-87
2021/03/06 00:46:11;;;;;;;6.50;2.63;;;0.20;99.90;;;;;;5048869;28;20047;-87
2021/03/06 00:48:37;;;;;;;6.73;3.00;;;0.20;99.90;;;;;;5045760;28;20045;-87
2021/03/06 00:51:03;;;;;;;6.20;2.73;;;0.20;99.90;;;;;;5051021;28;20120;-88
2021/03/06 00:53:28;;;;;;;6.47;3.30;;;0.20;99.90;;;;;;5050199;28;20025;-87
2021/03/06 00:55:54;;;;;;;5.80;3.00;;;0.30;99.90;;;;;;5051550;28;20029;-88
2021/03/06 00:58:20;;;;;;;5.70;3.03;;;0.30;99.90;;;;;;5051054;28;20605;-87
2021/03/06 01:00:45;;;;;;;5.50;2.60;;;0.30;99.90;;;;;;5039981;28;20540;-86
2021/03/06 01:03:11;;;;;;;6.67;2.97;;;0.30;99.90;;;;;;5039695;28;20032;-87
2021/03/06 01:05:37;;;;;;;4.73;2.70;;;0.30;99.90;;;;;;5042962;28;20116;-87
2021/03/06 01:08:06;;;;;;;5.00;2.60;;;0.30;99.90;;;;;;5060451;28;20466;-87
2021/03/06 01:10:39;;;;;;;6.13;3.13;;;0.30;99.90;;;;;;5048749;28;20021;-87
2021/03/06 01:13:05;;;;;;;5.13;2.93;;;0.30;99.90;;;;;;5041114;28;20091;-87
2021/03/06 01:15:32;;;;;;;8.50;3.17;;;0.30;99.90;;;;;;5042950;28;20389;-87
2021/03/06 01:17:57;;;;;;;6.57;3.00;;;0.30;99.90;;;;;;5039715;28;20448;-87
2021/03/06 01:20:23;;;;;;;7.17;3.30;;;0.30;99.90;;;;;;5044180;28;20025;-87
2021/03/06 01:22:49;;;;;;;5.37;2.80;;;0.30;99.90;;;;;;5043763;28;20032;-87
2021/03/06 01:25:15;;;;;;;8.33;3.30;;;0.30;99.90;;;;;;5051084;28;20029;-87
2021/03/06 01:27:41;;;;;;;7.70;3.40;;;0.30;99.90;;;;;;5044124;28;20057;-87
2021/03/06 01:30:08;;;;;;;7.30;3.53;;;0.20;99.90;;;;;;5040221;28;20032;-89
2021/03/06 01:32:34;;;;;;;5.83;3.20;;;0.20;99.90;;;;;;5045576;28;20025;-87
2021/03/06 01:35:00;;;;;;;6.53;3.03;;;0.20;99.90;;;;;;5052865;28;20033;-87
2021/03/06 01:37:25;;;;;;;5.50;2.93;;;0.10;99.90;;;;;;5043502;28;20025;-87
2021/03/06 01:39:51;;;;;;;7.40;2.73;;;0.10;99.90;;;;;;5040245;28;20083;-87
2021/03/06 01:42:19;;;;;;;5.80;3.00;;;0.10;99.90;;;;;;5050221;28;20105;-87
2021/03/06 01:44:45;;;;;;;6.73;3.43;;;0.10;99.90;;;;;;5048319;28;20498;-86
2021/03/06 01:47:11;;;;;;;5.73;2.90;;;0.10;99.90;;;;;;5043148;28;20115;-87
2021/03/06 01:49:37;;;;;;;5.63;2.83;;;0.10;99.90;;;;;;5045405;28;20030;-87
2021/03/06 01:52:04;;;;;;;6.00;3.23;;;0.00;99.90;;;;;;5044916;28;20359;-87
2021/03/06 01:54:30;;;;;;;4.83;2.70;;;0.00;99.90;;;;;;5045537;28;20054;-88
2021/03/06 01:56:55;;;;;;;7.17;3.03;;;0.00;99.90;;;;;;5053908;28;20441;-87
2021/03/06 01:59:21;;;;;;;6.00;2.70;;;-0.10;99.90;;;;;;5039077;28;20036;-87
2021/03/06 02:01:47;;;;;;;4.70;2.53;;;-0.10;99.90;;;;;;5056183;28;20040;-87
2021/03/06 02:04:13;;;;;;;5.30;2.97;;;-0.10;99.90;;;;;;5051505;28;20018;-87
2021/03/06 02:06:39;;;;;;;5.17;2.90;;;-0.10;99.90;;;;;;5051061;28;20509;-87
2021/03/06 02:09:05;;;;;;;6.87;2.97;;;-0.10;99.90;;;;;;5052399;28;20021;-87
2021/03/06 02:11:45;;;;;;;4.50;2.60;;;-0.20;99.90;;;;;;5053364;28;20032;-87
2021/03/06 02:14:32;;;;;;;4.93;2.97;;;-0.20;99.90;;;;;;5044484;28;20386;-87
2021/03/06 02:17:07;;;;;;;5.60;2.60;;;-0.30;99.90;;;;;;5045322;28;20017;-87
2021/03/06 02:20:00;;;;;;;4.97;2.80;;;-0.30;99.90;;;;;;5045462;28;20376;-87
2021/03/06 02:22:53;;;;;;;5.28;2.75;;;-0.40;99.90;;;;;;5066445;28;20042;-87
2021/03/06 02:26:13;;;;;;;5.23;2.63;;;-0.40;99.90;;;;;;5055982;28;20068;-87
2021/03/06 02:28:49;;;;;;;6.20;3.23;;;-0.40;99.90;;;;;;5010301;28;20029;-87
2021/03/06 02:31:15;;;;;;;6.03;3.10;;;-0.40;99.90;;;;;;5046887;28;20555;-86
2021/03/06 02:33:45;;;;;;;6.13;3.07;;;-0.50;99.90;;;;;;5053753;28;20478;-87
2021/03/06 02:36:15;;;;;;;5.57;2.80;;;-0.50;99.90;;;;;;5039751;28;20025;-87
2021/03/06 02:38:42;;;;;;;6.43;3.00;;;-0.50;99.90;;;;;;5047380;28;20041;-87
2021/03/06 02:41:11;;;;;;;4.90;2.83;;;-0.50;99.90;;;;;;5055824;28;20811;-86
2021/03/06 02:43:37;;;;;;;6.47;2.93;;;-0.50;99.90;;;;;;5051826;28;20032;-87
2021/03/06 02:46:07;;;;;;;5.43;2.87;;;-0.60;99.90;;;;;;5046574;28;20033;-87
2021/03/06 02:48:34;;;;;;;5.47;2.97;;;-0.60;99.90;;;;;;5055140;28;20021;-87
2021/03/06 02:51:00;;;;;;;7.20;2.97;;;-0.60;99.90;;;;;;5047034;28;20024;-87
2021/03/06 02:53:26;;;;;;;5.50;3.07;;;-0.60;99.90;;;;;;5049609;28;20056;-87
2021/03/06 02:55:51;;;;;;;5.57;2.80;;;-0.60;99.90;;;;;;5049621;28;20037;-88
2021/03/06 02:58:39;;;;;;;4.67;2.43;;;-0.60;99.90;;;;;;5056926;28;20037;-87
2021/03/06 03:01:21;;;;;;;5.47;2.80;;;-0.60;99.90;;;;;;5062972;28;20037;-87
2021/03/06 03:03:55;;;;;;;5.10;3.08;;;-0.60;99.90;;;;;;5053395;28;20025;-87
2021/03/06 03:06:35;;;;;;;5.77;2.83;;;-0.60;99.90;;;;;;5052782;28;20029;-87
2021/03/06 03:09:08;;;;;;;7.30;3.17;;;-0.60;99.90;;;;;;5052711;28;20025;-87
2021/03/06 03:11:56;;;;;;;4.80;2.77;;;-0.60;99.90;;;;;;5054804;28;20016;-87
2021/03/06 03:15:03;;;;;;;6.27;3.27;;;-0.60;99.90;;;;;;5048770;28;20492;-87
2021/03/06 03:17:37;;;;;;;7.23;3.00;;;-0.60;99.90;;;;;;5042824;23;20050;-90
2021/03/06 03:20:21;;;;;;;6.60;2.80;;;-0.60;99.90;;;;;;5010862;28;20026;-90
2021/03/06 03:22:51;;;;;;;4.93;2.70;;;-0.60;99.90;;;;;;5012860;28;20006;-87
2021/03/06 03:25:18;;;;;;;6.60;2.60;;;-0.60;99.90;;;;;;5022038;28;20395;-91
2021/03/06 03:27:45;;;;;;;5.47;3.00;;;-0.60;99.90;;;;;;5003115;28;20040;-91
2021/03/06 03:30:15;;;;;;;6.13;2.90;;;-0.60;99.90;;;;;;5008406;28;20120;-91
2021/03/06 03:32:44;;;;;;;4.83;2.93;;;-0.60;99.90;;;;;;5000097;28;20023;-89
2021/03/06 03:35:13;;;;;;;6.43;2.83;;;-0.60;99.90;;;;;;5010427;28;20160;-91
2021/03/06 03:37:41;;;;;;;6.20;2.87;;;-0.60;99.90;;;;;;5028634;28;20025;-88
2021/03/06 03:40:07;;;;;;;5.27;2.60;;;-0.60;99.90;;;;;;5012696;28;20041;-90
2021/03/06 03:42:33;;;;;;;4.90;2.40;;;-0.60;99.90;;;;;;5014176;28;20036;-90
2021/03/06 03:45:01;;;;;;;4.30;2.80;;;-0.70;99.90;;;;;;5003547;28;20033;-92
2021/03/06 03:47:28;;;;;;;5.33;2.33;;;-0.70;99.90;;;;;;4999023;28;20022;-90
2021/03/06 03:49:54;;;;;;;5.13;2.50;;;-0.70;99.90;;;;;;4998546;28;20081;-92
2021/03/06 03:52:20;;;;;;;5.47;2.50;;;-0.70;99.90;;;;;;4996670;28;20034;-90
2021/03/06 03:54:48;;;;;;;4.83;2.70;;;-0.70;99.90;;;;;;5002704;28;20017;-91
2021/03/06 03:57:14;;;;;;;7.23;2.60;;;-0.80;99.90;;;;;;5004677;28;20033;-91
2021/03/06 03:59:39;;;;;;;6.07;2.70;;;-0.80;99.90;;;;;;4998682;28;20490;-91
2021/03/06 04:02:05;;;;;;;4.33;2.37;;;-0.90;99.90;;;;;;5002631;28;20022;-91
2021/03/06 04:04:32;;;;;;;4.70;2.10;;;-0.90;99.90;;;;;;4997615;28;20026;-91
2021/03/06 04:06:59;;;;;;;4.83;2.37;;;-0.90;99.90;;;;;;4999156;28;20023;-91
2021/03/06 04:09:26;;;;;;;4.97;2.60;;;-0.90;99.90;;;;;;4997572;28;20140;-90
2021/03/06 04:11:52;;;;;;;4.77;2.60;;;-0.90;99.90;;;;;;5007945;28;20502;-92
2021/03/06 04:14:18;;;;;;;4.90;2.93;;;-0.90;99.90;;;;;;5002481;28;20026;-91
2021/03/06 04:16:43;;;;;;;5.07;2.80;;;-0.90;99.90;;;;;;4998468;28;20030;-89
2021/03/06 04:19:09;;;;;;;6.90;2.80;;;-0.90;99.90;;;;;;5008235;28;20439;-89
2021/03/06 04:21:35;;;;;;;6.30;2.77;;;-0.90;99.90;;;;;;5002627;28;20038;-91
2021/03/06 04:24:01;;;;;;;5.60;2.80;;;-0.90;99.90;;;;;;5001130;28;20025;-90
2021/03/06 04:26:26;;;;;;;5.77;3.20;;;-0.90;99.90;;;;;;5025982;28;20034;-91
2021/03/06 04:28:52;;;;;;;6.03;3.17;;;-0.80;99.90;;;;;;5001262;28;20030;-91
2021/03/06 04:31:18;;;;;;;9.07;4.00;;;-0.80;99.90;;;;;;5001043;28;20037;-90
2021/03/06 04:33:44;;;;;;;6.13;3.20;;;-0.80;99.90;;;;;;5028728;28;20037;-88
2021/03/06 04:36:10;;;;;;;4.77;2.70;;;-0.80;99.90;;;;;;4997450;28;20128;-91
2021/03/06 04:38:36;;;;;;;5.57;2.90;;;-0.80;99.90;;;;;;4999343;28;20031;-90
2021/03/06 04:41:02;;;;;;;5.67;3.07;;;-0.80;99.90;;;;;;5002407;28;20207;-90
2021/03/06 04:43:28;;;;;;;4.70;2.60;;;-0.80;99.90;;;;;;5002016;28;20036;-89
2021/03/06 04:45:53;;;;;;;6.30;2.83;;;-0.90;99.90;;;;;;5019529;28;20087;-92
2021/03/06 04:48:19;;;;;;;5.40;2.90;;;-0.90;99.90;;;;;;4997844;28;20028;-91
2021/03/06 04:50:45;;;;;;;4.57;2.63;;;-0.90;99.90;;;;;;5001867;28;20033;-92
2021/03/06 04:53:11;;;;;;;5.90;2.67;;;-0.90;99.90;;;;;;4997546;28;20022;-92
2021/03/06 04:55:37;;;;;;;5.50;2.53;;;-1.00;99.90;;;;;;5002898;28;20395;-92
2021/03/06 04:58:02;;;;;;;5.77;2.67;;;-1.00;99.90;;;;;;5011157;28;20048;-91
2021/03/06 05:00:28;;;;;;;5.50;2.90;;;-1.00;99.90;;;;;;5007638;28;20112;-89
2021/03/06 05:02:55;;;;;;;4.73;2.87;;;-0.90;99.90;;;;;;5007471;28;20014;-88
2021/03/06 05:05:21;;;;;;;6.47;2.60;;;-1.10;99.90;;;;;;5012612;28;20034;-90
2021/03/06 05:07:46;;;;;;;5.87;2.80;;;-1.00;99.90;;;;;;5013161;28;20037;-89
2021/03/06 05:10:13;;;;;;;10.07;3.20;;;-1.10;99.90;;;;;;4997892;28;20149;-91
2021/03/06 05:12:38;;;;;;;6.17;3.07;;;-1.10;99.90;;;;;;5025645;28;20030;-90
2021/03/06 05:15:05;;;;;;;7.70;3.10;;;-1.10;99.90;;;;;;5017908;28;20034;-91
2021/03/06 05:17:31;;;;;;;6.80;2.87;;;-1.10;99.90;;;;;;4996019;28;20030;-91
2021/03/06 05:19:57;;;;;;;5.20;2.67;;;-1.10;99.90;;;;;;4997003;28;20026;-90
2021/03/06 05:22:23;;;;;;;5.03;2.83;;;-1.20;99.90;;;;;;5001559;28;20463;-90
2021/03/06 05:24:48;;;;;;;5.20;2.50;;;-1.20;99.90;;;;;;4998653;28;20026;-91
2021/03/06 05:27:15;;;;;;;5.40;2.90;;;-1.10;99.90;;;;;;4999901;28;20046;-91
2021/03/06 05:29:41;;;;;;;6.03;2.83;;;-1.10;99.90;;;;;;4998748;28;20029;-91
2021/03/06 05:32:07;;;;;;;6.23;2.97;;;-1.20;99.90;;;;;;5000245;28;20018;-91
2021/03/06 05:34:33;;;;;;;6.20;3.33;;;-1.20;99.90;;;;;;4995969;28;20022;-91
2021/03/06 05:36:59;;;;;;;5.63;3.00;;;-1.10;99.90;;;;;;5002152;28;20069;-91
2021/03/06 05:39:25;;;;;;;7.10;2.97;;;-1.20;99.90;;;;;;5008520;28;20030;-91
2021/03/06 05:41:51;;;;;;;7.40;2.87;;;-1.10;99.90;;;;;;5015138;28;20073;-88
2021/03/06 05:44:17;;;;;;;6.07;2.93;;;-1.20;99.90;;;;;;5026455;28;20018;-88
2021/03/06 05:46:44;;;;;;;6.83;2.80;;;-1.20;99.90;;;;;;5015475;28;20030;-92
2021/03/06 05:49:11;;;;;;;6.40;2.70;;;-1.20;99.90;;;;;;4996137;28;20030;-91
2021/03/06 05:51:38;;;;;;;5.83;2.80;;;-1.10;99.90;;;;;;5007053;28;20026;-91
2021/03/06 05:54:14;;;;;;;5.23;2.63;;;-1.20;99.90;;;;;;4996492;28;20069;-89
2021/03/06 05:56:41;;;;;;;4.97;2.63;;;-1.20;99.90;;;;;;5009708;28;20049;-90
2021/03/06 05:59:12;;;;;;;4.63;2.73;;;-1.30;99.90;;;;;;4998495;28;20049;-92
2021/03/06 06:01:40;;;;;;;5.67;2.87;;;-1.20;99.90;;;;;;5014998;28;20503;-88
2021/03/06 06:04:07;;;;;;;6.93;3.03;;;-1.30;99.90;;;;;;4996121;28;20026;-91
2021/03/06 06:06:35;;;;;;;9.27;3.40;;;-1.30;99.90;;;;;;5004479;28;20104;-90
2021/03/06 06:09:02;;;;;;;6.30;3.13;;;-1.30;99.90;;;;;;5010505;28;20022;-92
2021/03/06 06:11:28;;;;;;;7.13;3.07;;;-1.30;99.90;;;;;;5025706;28;20084;-91
2021/03/06 06:13:55;;;;;;;6.70;3.40;;;-1.30;99.90;;;;;;5011964;28;20022;-90
2021/03/06 06:16:22;;;;;;;5.73;2.93;;;-1.20;99.90;;;;;;5009881;28;20030;-92
2021/03/06 06:18:50;;;;;;;4.73;2.80;;;-1.20;99.90;;;;;;5012666;28;20088;-91
2021/03/06 06:21:54;;;;;;;6.20;3.33;;;-1.20;99.90;;;;;;5004756;28;20026;-92
2021/03/06 06:24:22;;;;;;;5.30;2.80;;;-1.20;99.90;;;;;;4923416;28;20038;-91
2021/03/06 06:27:00;;;;;;;5.63;2.90;;;-1.20;99.90;;;;;;4931905;29;20028;-91
2021/03/06 06:29:42;;;;;;;5.50;3.07;;;-1.10;99.90;;;;;;4968310;28;20132;-92
2021/03/06 06:32:13;;;;;;;5.70;3.17;;;-1.10;99.90;;;;;;5006265;28;20367;-91
2021/03/06 06:34:40;;;;;;;8.17;4.93;;;-1.10;99.90;;;;;;5004491;28;20033;-91
2021/03/06 06:37:15;;;;;;;5.47;3.17;;;-1.00;99.90;;;;;;4998602;28;20054;-91
2021/03/06 06:39:43;;;;;;;7.97;3.43;;;-0.90;99.90;;;;;;5002457;28;20149;-91
2021/03/06 06:42:09;;;;;;;5.70;3.07;;;-1.00;99.90;;;;;;5017774;28;20050;-89
2021/03/06 09:17:19;;;;;;;5.80;3.20;;;3.10;90.50;;;;;;4992748;28;20042;-86
2021/03/06 09:19:45;;;;;;;6.17;3.17;;;3.20;90.70;;;;;;4992287;28;20133;-86
2021/03/06 09:22:11;;;;;;;6.87;3.40;;;3.30;89.40;;;;;;4988366;28;20502;-86
2021/03/06 09:24:50;;;;;;;6.37;3.23;;;3.30;90.20;;;;;;4979579;28;20034;-86
2021/03/06 09:27:17;;;;;;;6.30;2.87;;;3.30;87.60;;;;;;4990001;28;20026;-86
2021/03/06 09:29:44;;;;;;;4.80;2.83;;;3.50;89.10;;;;;;4972646;28;20033;-87
2021/03/06 09:32:11;;;;;;;5.87;3.13;;;3.60;87.60;;;;;;4986449;28;20030;-86
2021/03/06 09:34:42;;;;;;;7.00;3.43;;;3.60;86.20;;;;;;4975279;28;20018;-87
2021/03/06 09:37:19;;;;;;;8.80;4.30;;;3.80;86.90;;;;;;4974780;28;20041;-86
2021/03/06 09:39:47;;;;;;;6.30;3.20;;;3.70;85.10;;;;;;4975789;28;20041;-87
2021/03/06 09:42:17;;;;;;;6.20;3.50;;;3.80;85.30;;;;;;4975128;28;20050;-87
2021/03/06 09:44:50;;;;;;;7.50;3.30;;;3.90;84.90;;;;;;4974586;28;20117;-85
2021/03/06 09:47:22;;;;;;;6.33;3.27;;;3.90;82.10;;;;;;4987444;28;20026;-85
2021/03/06 09:49:48;;;;;;;5.27;3.27;;;3.90;82.20;;;;;;4964057;28;20069;-86
2021/03/06 10:26:28;;;;;;;5.63;3.07;;;4.30;74.30;;;;;;4960691;28;20173;-85
2021/03/06 10:29:17;;;;;;;8.30;3.33;;;4.30;72.50;;;;;;4970797;28;20041;-89
2021/03/06 10:31:43;;;;;;;5.57;3.30;;;4.30;75.00;;;;;;4967920;28;20039;-85
2021/03/06 10:34:24;;;;;;;5.13;2.53;;;4.50;72.90;;;;;;4965863;28;20030;-85
2021/03/06 10:37:09;;;;;;;5.53;3.10;;;4.70;69.90;;;;;;4957470;28;20044;-86
2021/03/06 10:39:56;;;;;;;5.67;2.80;;;4.80;70.80;;;;;;4974120;28;20110;-85
2021/03/06 10:42:39;;;;;;;4.93;2.60;;;4.90;69.80;;;;;;4976292;28;20027;-87
2021/03/06 10:45:07;;;;;;;4.87;2.87;;;4.90;65.10;;;;;;4971393;28;20460;-86
2021/03/06 10:47:46;;;;;;;5.73;3.20;;;5.00;69.50;;;;;;4975723;28;20058;-86
2021/03/06 10:50:27;;;;;;;5.37;3.03;;;5.00;68.70;;;;;;4978219;28;20043;-86
2021/03/06 10:53:14;;;;;;;8.27;3.30;;;5.10;67.20;;;;;;4964997;28;20169;-86
2021/03/06 10:55:40;;;;;;;5.80;3.27;;;5.10;67.90;;;;;;4958920;28;20023;-85
2021/03/06 10:58:06;;;;;;;7.13;3.00;;;5.20;68.00;;;;;;4975774;28;20023;-87
2021/03/06 11:00:32;;;;;;;5.93;3.60;;;5.30;68.70;;;;;;4958911;28;20023;-86
2021/03/06 11:03:00;;;;;;;6.07;3.20;;;5.40;66.60;;;;;;4968975;28;20085;-86
2021/03/06 11:05:26;;;;;;;5.93;3.20;;;5.50;66.40;;;;;;4953840;28;20507;-87
2021/03/06 11:07:54;;;;;;;5.83;3.40;;;5.50;64.80;;;;;;4985794;28;20028;-86
2021/03/06 11:10:21;;;;;;;5.70;3.13;;;5.60;66.40;;;;;;4947979;28;20071;-86
2021/03/06 11:12:57;;;;;;;4.87;2.90;;;5.50;64.10;;;;;;4958677;28;20038;-87
2021/03/06 11:15:26;;;;;;;5.93;3.10;;;5.60;65.70;;;;;;4955249;28;20625;-86
2021/03/06 11:17:56;;;;;;;4.53;2.40;;;5.60;62.90;;;;;;4977425;28;20022;-87
2021/03/06 11:20:25;;;;;;;5.90;2.87;;;5.60;61.80;;;;;;4958833;28;20543;-86
2021/03/06 11:22:51;;;;;;;5.60;2.90;;;5.60;61.90;;;;;;4976190;28;20089;-86
2021/03/06 11:25:18;;;;;;;5.40;2.50;;;5.70;62.70;;;;;;4959986;28;20456;-86
2021/03/06 11:28:00;;;;;;;4.40;2.20;;;5.80;61.60;;;;;;4978015;28;20056;-86
2021/03/06 11:30:27;;;;;;;5.38;2.65;;;5.80;60.80;;;;;;4956523;28;20041;-87
2021/03/06 11:32:54;;;;;;;5.17;2.43;;;6.00;60.80;;;;;;4971585;28;20026;-86
2021/03/06 11:35:22;;;;;;;5.63;2.70;;;6.00;60.20;;;;;;4969846;28;20102;-86
2021/03/06 11:37:48;;;;;;;4.13;2.20;;;6.10;60.70;;;;;;4955148;28;20058;-87
2021/03/06 11:40:18;;;;;;;4.23;2.30;;;6.30;60.10;;;;;;4975788;28;20086;-87
2021/03/06 11:42:51;;;;;;;6.60;2.67;;;6.50;57.60;;;;;;4974461;28;20026;-87
2021/03/06 11:45:22;;;;;;;4.60;2.50;;;6.60;58.80;;;;;;4960499;28;20551;-86
2021/03/06 11:47:48;;;;;;;4.17;2.20;;;6.60;56.70;;;;;;4969854;28;20046;-87
2021/03/06 11:50:18;;;;;;;4.37;2.40;;;6.70;58.00;;;;;;4972722;28;20022;-86
2021/03/06 11:52:49;;;;;;;4.03;1.80;;;6.70;55.60;;;;;;4954693;28;20035;-86
2021/03/06 11:55:21;;;;;;;4.03;1.83;;;6.60;53.00;;;;;;4954503;28;20105;-84
2021/03/06 11:57:53;;;;;;;3.25;1.63;;;6.70;52.40;;;;;;4961682;28;20091;-85
2021/03/06 12:00:27;;;;;;;4.47;1.80;;;6.60;51.30;;;;;;4971176;28;20026;-85
2021/03/06 12:02:53;;;;;;;4.70;1.60;;;6.60;54.80;;;;;;4969998;28;20085;-85
2021/03/06 12:05:35;;;;;;;5.73;1.53;;;6.80;53.30;;;;;;4970570;28;20026;-85
2021/03/06 12:08:01;;;;;;;2.08;0.98;;;6.90;51.60;;;;;;4971439;28;20033;-85
2021/03/06 12:10:30;;;;;;;3.53;1.70;;;6.90;51.10;;;;;;4971185;28;20114;-85
2021/03/06 12:13:00;;;;;;;4.97;1.67;;;7.10;50.00;;;;;;4969510;28;20058;-85
2021/03/06 12:15:28;;;;;;;3.83;1.60;;;6.90;49.00;;;;;;4963078;28;20113;-85
2021/03/06 12:17:56;;;;;;;4.47;1.80;;;7.00;51.10;;;;;;4950630;28;20047;-85
2021/03/06 12:20:24;;;;;;;4.20;1.80;;;7.10;50.50;;;;;;4959413;28;20046;-85
2021/03/06 12:22:52;;;;;;;6.03;2.57;;;7.10;50.50;;;;;;4976202;28;20019;-85
2021/03/06 12:25:18;;;;;;;4.70;2.30;;;7.20;53.90;;;;;;4975624;28;20109;-85
2021/03/06 12:27:47;;;;;;;5.83;2.50;;;7.30;54.40;;;;;;4972520;28;20039;-85
2021/03/06 12:30:17;;;;;;;4.40;2.07;;;7.30;54.60;;;;;;4978506;28;20094;-85
2021/03/06 12:32:48;;;;;;;5.03;2.33;;;7.30;51.50;;;;;;4964517;28;20063;-85
2021/03/06 12:35:16;;;;;;;5.63;2.83;;;7.30;52.50;;;;;;4976341;28;20097;-86
2021/03/06 12:37:45;;;;;;;5.50;2.73;;;7.40;54.30;;;;;;4971742;28;20023;-85
2021/03/06 12:40:18;;;;;;;5.90;2.93;;;7.30;52.60;;;;;;4964974;28;20034;-85
2021/03/06 12:42:44;;;;;;;6.77;2.77;;;7.30;52.20;;;;;;4975126;28;20069;-85
2021/03/06 12:45:11;;;;;;;5.63;2.10;;;7.20;54.20;;;;;;4969730;28;20083;-85
2021/03/06 12:47:37;;;;;;;4.33;2.33;;;7.10;52.40;;;;;;4976395;28;20018;-86
2021/03/06 12:50:05;;;;;;;4.43;2.00;;;7.20;52.00;;;;;;4989903;28;20405;-84
2021/03/06 12:52:31;;;;;;;4.50;2.07;;;7.30;54.20;;;;;;4977222;28;20031;-85
2021/03/06 12:55:00;;;;;;;5.57;2.73;;;7.20;52.60;;;;;;4976508;28;20030;-85
2021/03/06 12:57:25;;;;;;;5.53;2.50;;;7.30;52.70;;;;;;4962809;28;20031;-85
2021/03/06 12:59:51;;;;;;;5.33;2.80;;;7.20;52.90;;;;;;4974480;28;20019;-86
2021/03/06 13:02:19;;;;;;;5.40;2.33;;;7.30;53.20;;;;;;4971236;28;20330;-86
2021/03/06 13:04:45;;;;;;;4.13;2.40;;;7.30;52.50;;;;;;4996585;28;20079;-84
2021/03/06 13:07:11;;;;;;;5.47;2.47;;;7.40;53.70;;;;;;4991309;28;20031;-83
2021/03/06 13:09:36;;;;;;;4.20;2.20;;;7.50;51.40;;;;;;4972247;28;20034;-84
2021/03/06 13:12:03;;;;;;;4.57;2.17;;;7.50;53.10;;;;;;4980871;28;20043;-84
2021/03/06 13:14:28;;;;;;;3.80;2.07;;;7.50;52.10;;;;;;4958432;28;20035;-84
2021/03/06 13:16:54;;;;;;;3.83;1.93;;;7.60;52.30;;;;;;4965455;28;20041;-84
2021/03/06 13:19:21;;;;;;;3.57;1.83;;;7.60;51.70;;;;;;4974322;28;20540;-84
2021/03/06 13:21:48;;;;;;;4.37;2.03;;;7.60;49.50;;;;;;4975131;28;20093;-84
2021/03/06 13:24:13;;;;;;;4.57;2.03;;;7.50;49.70;;;;;;4955603;28;20027;-85
2021/03/06 13:26:39;;;;;;;5.03;2.00;;;7.60;51.30;;;;;;4971346;28;20037;-83
2021/03/06 13:29:05;;;;;;;3.67;1.83;;;7.70;49.20;;;;;;4963418;28;20043;-84
2021/03/06 13:31:30;;;;;;;4.70;2.20;;;7.80;50.60;;;;;;4959387;28;20030;-84
2021/03/06 13:33:56;;;;;;;3.83;1.70;;;8.00;50.70;;;;;;4973815;28;20038;-84
2021/03/06 13:36:22;;;;;;;4.53;2.27;;;8.00;50.40;;;;;;4973779;28;20480;-85
2021/03/06 13:38:48;;;;;;;4.07;2.07;;;8.10;48.50;;;;;;4957637;28;20069;-83
2021/03/06 13:41:13;;;;;;;4.57;1.87;;;8.10;48.80;;;;;;4976902;28;20031;-84
2021/03/06 13:43:40;;;;;;;4.87;2.10;;;8.10;48.30;;;;;;4982601;28;20041;-85
2021/03/06 13:46:05;;;;;;;3.83;2.00;;;8.20;48.70;;;;;;4983991;28;20042;-86
2021/03/06 13:48:31;;;;;;;3.27;1.80;;;8.50;48.90;;;;;;4978680;28;20422;-85
2021/03/06 13:50:56;;;;;;;3.75;1.83;;;8.70;48.20;;;;;;4989210;28;20520;-85
2021/03/06 13:53:22;;;;;;;4.97;1.80;;;8.90;47.90;;;;;;4986750;28;20022;-85
2021/03/06 13:55:48;;;;;;;3.47;1.73;;;8.60;45.30;;;;;;4993720;28;20054;-85
2021/03/06 13:58:13;;;;;;;3.50;1.80;;;8.70;45.40;;;;;;4971979;28;20027;-85
2021/03/06 14:00:40;;;;;;;5.33;1.93;;;8.70;47.20;;;;;;4982068;28;20110;-86
2021/03/06 14:03:06;;;;;;;3.47;1.70;;;8.80;46.80;;;;;;4975681;28;20038;-87
2021/03/06 14:05:32;;;;;;;3.40;1.67;;;9.10;46.80;;;;;;4993921;28;20030;-87
2021/03/06 14:07:57;;;;;;;4.93;2.03;;;9.30;46.90;;;;;;4978628;28;20037;-88
2021/03/06 14:10:25;;;;;;;3.80;1.80;;;9.50;45.00;;;;;;4984864;28;21033;-84
2021/03/06 14:12:51;;;;;;;3.55;1.77;;;9.60;45.40;;;;;;4981759;28;20031;-84
2021/03/06 14:15:16;;;;;;;3.65;1.70;;;9.80;45.30;;;;;;4967165;28;20060;-87
2021/03/06 14:17:43;;;;;;;3.60;1.77;;;9.70;44.00;;;;;;4972873;28;20030;-85
2021/03/06 14:20:10;;;;;;;4.68;2.15;;;9.50;44.00;;;;;;4959544;28;20027;-84
2021/03/06 14:22:36;;;;;;;4.88;2.10;;;9.50;44.60;;;;;;4963930;28;20029;-85
2021/03/06 14:25:05;;;;;;;5.80;2.05;;;9.70;44.20;;;;;;4955438;28;20035;-87
2021/03/06 14:27:31;;;;;;;3.47;1.60;;;9.90;43.90;;;;;;4979654;28;20038;-85
2021/03/06 14:29:57;;;;;;;5.32;2.40;;;10.40;42.40;;;;;;4960082;28;20049;-86
2021/03/06 14:32:24;;;;;;;3.42;1.52;;;10.80;43.00;;;;;;4975314;28;20027;-85
2021/03/06 14:34:51;;;;;;;4.20;1.83;;;11.20;43.00;;;;;;4974725;28;20027;-86
2021/03/06 14:37:17;;;;;;;4.72;1.90;;;11.30;41.50;;;;;;4981137;28;20034;-86
2021/03/06 14:39:45;;;;;;;3.55;1.73;;;11.50;41.00;;;;;;4963738;28;20389;-86
2021/03/06 14:42:14;;;;;;;5.72;1.75;;;11.60;39.70;;;;;;4967594;28;20046;-85
2021/03/06 14:44:41;;;;;;;2.70;1.40;;;11.70;41.00;;;;;;4980511;28;20669;-86
2021/03/06 14:47:07;;;;;;;3.70;1.40;;;11.90;40.50;;;;;;4962011;28;20027;-86
2021/03/06 14:49:34;;;;;;;3.17;1.55;;;11.90;39.00;;;;;;4967686;28;20574;-86
2021/03/06 14:51:59;;;;;;;3.40;1.70;;;12.20;39.60;;;;;;4969901;28;20030;-86
2021/03/06 14:54:25;;;;;;;3.25;1.60;;;12.40;39.40;;;;;;4983237;28;20052;-86
2021/03/06 14:56:51;;;;;;;3.00;1.60;;;12.70;38.20;;;;;;4946559;28;20030;-86
2021/03/06 14:59:16;;;;;;;3.20;1.73;;;12.90;38.20;;;;;;4967982;28;20027;-86
2021/03/06 15:01:42;;;;;;;3.55;1.60;;;12.70;37.60;;;;;;4985439;28;20455;-86
2021/03/06 15:04:08;;;;;;;4.90;1.90;;;12.40;38.60;;;;;;4970954;28;20030;-86
2021/03/06 15:06:33;;;;;;;4.90;1.90;;;12.30;38.80;;;;;;4981348;28;20030;-86
2021/03/06 15:09:02;;;;;;;3.45;1.77;;;12.30;39.00;;;;;;4954407;28;20474;-85
2021/03/06 15:11:28;;;;;;;3.42;1.70;;;12.10;39.10;;;;;;4957674;28;20041;-86
2021/03/06 15:13:53;;;;;;;4.03;1.60;;;11.70;38.70;;;;;;4981491;28;20395;-86
2021/03/06 15:16:19;;;;;;;3.85;1.52;;;11.70;39.60;;;;;;5013463;23;20397;-85
2021/03/06 15:18:45;;;;;;;4.15;1.80;;;11.60;38.00;;;;;;5032966;28;20091;-85
2021/03/06 15:21:10;;;;;;;3.88;1.80;;;11.50;38.70;;;;;;5050596;28;20033;-85
2021/03/06 15:23:36;;;;;;;4.65;1.85;;;11.20;39.10;;;;;;5021404;28;20025;-85
2021/03/06 15:26:02;;;;;;;4.47;1.98;;;11.10;39.60;;;;;;5029167;28;20490;-86
2021/03/06 15:28:28;;;;;;;3.53;1.70;;;10.70;40.60;;;;;;5036060;28;20029;-85
2021/03/06 15:30:54;;;;;;;3.80;1.50;;;10.20;41.00;;;;;;5032786;28;20025;-86
2021/03/06 15:33:19;;;;;;;3.40;1.50;;;9.70;41.00;;;;;;5030867;28;20029;-85
2021/03/06 15:35:45;;;;;;;4.40;2.08;;;9.10;41.80;;;;;;5030811;28;20029;-85
2021/03/06 15:38:13;;;;;;;4.25;2.33;;;8.70;43.10;;;;;;5035113;28;20481;-85
2021/03/06 15:40:39;;;;;;;4.85;1.90;;;8.30;43.60;;;;;;5055386;28;20024;-86
2021/03/06 15:43:05;;;;;;;4.10;1.95;;;8.00;45.30;;;;;;5033825;28;20033;-85
2021/03/06 15:45:32;;;;;;;4.22;2.20;;;7.80;46.10;;;;;;5031305;28;20488;-85
2021/03/06 15:47:58;;;;;;;4.20;1.90;;;7.60;45.80;;;;;;5032850;28;20036;-84
2021/03/06 15:50:25;;;;;;;3.25;1.70;;;7.50;45.60;;;;;;5034801;28;20029;-85
2021/03/06 15:52:50;;;;;;;4.30;2.17;;;7.40;45.60;;;;;;5045378;28;20032;-85
2021/03/06 15:55:16;;;;;;;4.63;1.87;;;7.30;45.00;;;;;;5054964;28;20025;-85
2021/03/06 15:57:43;;;;;;;4.10;1.93;;;7.20;46.00;;;;;;5033579;28;20051;-84
2021/03/06 16:00:11;;;;;;;4.43;1.90;;;7.10;46.30;;;;;;5052951;28;20124;-86
2021/03/06 16:02:36;;;;;;;4.40;1.90;;;6.90;46.80;;;;;;5053866;28;20077;-85
2021/03/06 16:05:08;;;;;;;4.40;2.37;;;6.80;47.60;;;;;;5053626;28;20040;-85